sensor_id;sensor_type;location;lat;lon;timestamp;pressure;altitude;pressure_sealevel;temperature;humidity
37132;BME280;23035;50.032;21.978;2023-03-03T00:04:47;65153.28;;;-0.18;100.00
37132;BME280;23035;50.032;21.978;2023-03-03T00:09:51;65112.13;;;-0.63;100.00
37132;BME280;23035;50.032;21.978;2023-03-03T00:14:56;65118.19;;;-0.52;100.00
37132;BME280;23035;50.032;21.978;2023-03-03T00:20:25;65178.56;;;0.01;100.00
37132;BME280;23035;50.032;21.978;2023-03-03T00:25:32;65211.75;;;0.38;100.00
37132;BME280;23035;50.032;21.978;2023-03-03T00:30:37;65153.28;;;-0.18;100.00
37132;BME280;23035;50.032;21.978;2023-03-03T00:35:43;65073.03;;;-0.95;100.00
37132;BME280;23035;50.032;21.978;2023-03-03T00:40:48;65142.53;;;-0.31;100.00
37132;BME280;23035;50.032;21.978;2023-03-03T00:45:53;65206.44;;;0.33;100.00
37132;BME280;23035;50.032;21.978;2023-03-03T00:51:01;65149.00;;;-0.22;100.00
37132;BME280;23035;50.032;21.978;2023-03-03T00:56:14;65013.97;;;-1.54;100.00
37132;BME280;23035;50.032;21.978;2023-03-03T01:01:19;64983.72;;;-1.83;100.00
37132;BME280;23035;50.032;21.978;2023-03-03T01:06:29;65068.13;;;-1.02;100.00
37132;BME280;23035;50.032;21.978;2023-03-03T01:11:34;65118.63;;;-0.54;100.00
37132;BME280;23035;50.032;21.978;2023-03-03T01:16:39;65133.06;;;-0.38;100.00
37132;BME280;23035;50.032;21.978;2023-03-03T01:21:45;65158.38;;;-0.18;100.00
37132;BME280;23035;50.032;21.978;2023-03-03T01:26:50;65183.78;;;0.04;100.00
37132;BME280;23035;50.032;21.978;2023-03-03T01:31:54;65170.69;;;-0.04;100.00
37132;BME280;23035;50.032;21.978;2023-03-03T01:37:01;65220.25;;;0.46;100.00
37132;BME280;23035;50.032;21.978;2023-03-03T01:42:06;65229.72;;;0.52;100.00
37132;BME280;23035;50.032;21.978;2023-03-03T01:47:12;65183.88;;;0.06;100.00
37132;BME280;23035;50.032;21.978;2023-03-03T01:52:24;65164.44;;;-0.08;100.00
37132;BME280;23035;50.032;21.978;2023-03-03T01:57:32;65151.66;;;-0.20;100.00
37132;BME280;23035;50.032;21.978;2023-03-03T02:02:39;65149.00;;;-0.22;100.00
37132;BME280;23035;50.032;21.978;2023-03-03T02:07:45;65098.00;;;-0.71;100.00
37132;BME280;23035;50.032;21.978;2023-03-03T02:12:52;65115.09;;;-0.52;100.00
37132;BME280;23035;50.032;21.978;2023-03-03T02:17:59;65145.72;;;-0.28;100.00
37132;BME280;23035;50.032;21.978;2023-03-03T02:23:07;65203.25;;;0.30;100.00
37132;BME280;23035;50.032;21.978;2023-03-03T02:28:15;65133.59;;;-0.37;100.00
37132;BME280;23035;50.032;21.978;2023-03-03T02:33:20;65161.13;;;-0.13;100.00
37132;BME280;23035;50.032;21.978;2023-03-03T02:38:26;65195.69;;;0.20;100.00
37132;BME280;23035;50.032;21.978;2023-03-03T02:43:38;65242.59;;;0.67;100.00
37132;BME280;23035;50.032;21.978;2023-03-03T02:48:45;65269.09;;;0.90;100.00
37132;BME280;23035;50.032;21.978;2023-03-03T02:53:50;65247.16;;;0.67;100.00
37132;BME280;23035;50.032;21.978;2023-03-03T02:58:56;65267.59;;;0.91;100.00
37132;BME280;23035;50.032;21.978;2023-03-03T03:04:04;65303.25;;;1.25;100.00
37132;BME280;23035;50.032;21.978;2023-03-03T03:09:13;65304.09;;;1.21;100.00
37132;BME280;23035;50.032;21.978;2023-03-03T03:14:22;65277.72;;;1.01;100.00
37132;BME280;23035;50.032;21.978;2023-03-03T03:19:28;65308.66;;;1.33;100.00
37132;BME280;23035;50.032;21.978;2023-03-03T03:24:36;65250.66;;;0.77;100.00
37132;BME280;23035;50.032;21.978;2023-03-03T03:29:47;65332.84;;;1.49;100.00
37132;BME280;23035;50.032;21.978;2023-03-03T03:34:53;65143.69;;;-0.27;100.00
37132;BME280;23035;50.032;21.978;2023-03-03T03:39:57;65163.91;;;-0.08;100.00
37132;BME280;23035;50.032;21.978;2023-03-03T03:45:05;65281.97;;;1.05;100.00
37132;BME280;23035;50.032;21.978;2023-03-03T03:50:10;65337.31;;;1.58;100.00
37132;BME280;23035;50.032;21.978;2023-03-03T03:55:16;65306.88;;;1.26;100.00
37132;BME280;23035;50.032;21.978;2023-03-03T04:00:23;65358.09;;;1.78;100.00
37132;BME280;23035;50.032;21.978;2023-03-03T04:05:32;65342.63;;;1.63;100.00
37132;BME280;23035;50.032;21.978;2023-03-03T04:10:38;65327.75;;;1.49;100.00
37132;BME280;23035;50.032;21.978;2023-03-03T04:15:44;65326.34;;;1.52;100.00
37132;BME280;23035;50.032;21.978;2023-03-03T04:20:49;65256.44;;;0.80;100.00
37132;BME280;23035;50.032;21.978;2023-03-03T04:25:54;65377.13;;;1.93;100.00
37132;BME280;23035;50.032;21.978;2023-03-03T04:31:01;65373.94;;;1.90;100.00
37132;BME280;23035;50.032;21.978;2023-03-03T04:36:07;65358.94;;;1.73;100.00
37132;BME280;23035;50.032;21.978;2023-03-03T04:41:12;65274.09;;;1.00;100.00
37132;BME280;23035;50.032;21.978;2023-03-03T04:46:19;65294.53;;;1.12;100.00
37132;BME280;23035;50.032;21.978;2023-03-03T04:51:25;65320.59;;;1.37;100.00
37132;BME280;23035;50.032;21.978;2023-03-03T04:56:30;65287.81;;;1.10;100.00
37132;BME280;23035;50.032;21.978;2023-03-03T05:01:37;65293.66;;;1.16;100.00
37132;BME280;23035;50.032;21.978;2023-03-03T05:06:41;65345.28;;;1.65;100.00
37132;BME280;23035;50.032;21.978;2023-03-03T05:11:46;65314.75;;;1.31;100.00
37132;BME280;23035;50.032;21.978;2023-03-03T05:16:52;65240.47;;;0.65;100.00
37132;BME280;23035;50.032;21.978;2023-03-03T05:21:57;65287.91;;;1.13;100.00
37132;BME280;23035;50.032;21.978;2023-03-03T05:27:02;65319.41;;;1.46;100.00
37132;BME280;23035;50.032;21.978;2023-03-03T05:32:08;65374.47;;;1.91;100.00
37132;BME280;23035;50.032;21.978;2023-03-03T05:37:12;65372.34;;;1.89;100.00
37132;BME280;23035;50.032;21.978;2023-03-03T05:42:17;65435.94;;;2.54;100.00
37132;BME280;23035;50.032;21.978;2023-03-03T05:47:23;65414.88;;;2.27;100.00
37132;BME280;23035;50.032;21.978;2023-03-03T05:52:28;65405.91;;;2.21;100.00
37132;BME280;23035;50.032;21.978;2023-03-03T05:57:32;65405.91;;;2.21;100.00
37132;BME280;23035;50.032;21.978;2023-03-03T06:02:39;65352.66;;;1.70;100.00
37132;BME280;23035;50.032;21.978;2023-03-03T06:07:43;65376.06;;;1.92;100.00
37132;BME280;23035;50.032;21.978;2023-03-03T06:12:48;65381.28;;;1.95;100.00
37132;BME280;23035;50.032;21.978;2023-03-03T06:17:54;65361.28;;;1.81;100.00
37132;BME280;23035;50.032;21.978;2023-03-03T06:22:58;65445.75;;;2.56;100.00
37132;BME280;23035;50.032;21.978;2023-03-03T06:28:03;65476.88;;;2.91;100.00
37132;BME280;23035;50.032;21.978;2023-03-03T06:33:09;65418.59;;;2.30;100.00
37132;BME280;23035;50.032;21.978;2023-03-03T06:38:14;65352.22;;;1.72;100.00
37132;BME280;23035;50.032;21.978;2023-03-03T06:43:18;65394.81;;;2.13;100.00
37132;BME280;23035;50.032;21.978;2023-03-03T06:48:24;65413.38;;;2.28;100.00
37132;BME280;23035;50.032;21.978;2023-03-03T06:53:31;65430.84;;;2.42;100.00
37132;BME280;23035;50.032;21.978;2023-03-03T06:58:36;65410.81;;;2.28;100.00
37132;BME280;23035;50.032;21.978;2023-03-03T07:03:42;65418.78;;;2.36;100.00
37132;BME280;23035;50.032;21.978;2023-03-03T07:08:47;65424.66;;;2.41;100.00
37132;BME280;23035;50.032;21.978;2023-03-03T07:13:53;65458.22;;;2.73;100.00
37132;BME280;23035;50.032;21.978;2023-03-03T07:19:00;65500.31;;;3.13;100.00
37132;BME280;23035;50.032;21.978;2023-03-03T07:24:25;65526.44;;;3.38;100.00
37132;BME280;23035;50.032;21.978;2023-03-03T07:29:32;65463.88;;;2.74;100.00
37132;BME280;23035;50.032;21.978;2023-03-03T07:34:39;65486.28;;;2.95;100.00
37132;BME280;23035;50.032;21.978;2023-03-03T07:39:44;65505.22;;;3.21;100.00
37132;BME280;23035;50.032;21.978;2023-03-03T07:44:51;65375.00;;;1.91;100.00
37132;BME280;23035;50.032;21.978;2023-03-03T07:50:00;65325.06;;;1.46;100.00
37132;BME280;23035;50.032;21.978;2023-03-03T07:55:22;65347.97;;;1.68;100.00
37132;BME280;23035;50.032;21.978;2023-03-03T08:06:30;65395.44;;;2.16;100.00
37132;BME280;23035;50.032;21.978;2023-03-03T08:11:41;65338.16;;;1.54;100.00
37132;BME280;23035;50.032;21.978;2023-03-03T08:16:50;65345.28;;;1.65;100.00
37132;BME280;23035;50.032;21.978;2023-03-03T08:21:59;65387.88;;;2.06;100.00
37132;BME280;23035;50.032;21.978;2023-03-03T08:27:06;65400.78;;;2.21;100.00
37132;BME280;23035;50.032;21.978;2023-03-03T08:32:11;65344.75;;;1.65;100.00
37132;BME280;23035;50.032;21.978;2023-03-03T08:37:17;65425.81;;;2.45;100.00
37132;BME280;23035;50.032;21.978;2023-03-03T08:42:25;65439.91;;;2.51;100.00
37132;BME280;23035;50.032;21.978;2023-03-03T08:47:32;65416.22;;;2.36;100.00
37132;BME280;23035;50.032;21.978;2023-03-03T08:52:48;65456.63;;;2.72;100.00
37132;BME280;23035;50.032;21.978;2023-03-03T08:57:59;65456.50;;;2.69;100.00
37132;BME280;23035;50.032;21.978;2023-03-03T09:03:10;65429.53;;;2.48;100.00
37132;BME280;23035;50.032;21.978;2023-03-03T09:08:17;65499.25;;;3.12;100.00
37132;BME280;23035;50.032;21.978;2023-03-03T09:13:21;65566.00;;;3.79;100.00
37132;BME280;23035;50.032;21.978;2023-03-03T09:18:30;65438.50;;;2.54;100.00
37132;BME280;23035;50.032;21.978;2023-03-03T09:23:39;65505.75;;;3.21;100.00
37132;BME280;23035;50.032;21.978;2023-03-03T09:28:45;65473.13;;;2.87;100.00
37132;BME280;23035;50.032;21.978;2023-03-03T09:33:49;65549.38;;;3.60;100.00
37132;BME280;23035;50.032;21.978;2023-03-03T09:39:29;65443.28;;;2.59;100.00
37132;BME280;23035;50.032;21.978;2023-03-03T09:45:07;65344.22;;;1.64;100.00
37132;BME280;23035;50.032;21.978;2023-03-03T09:50:25;65403.78;;;2.19;100.00
37132;BME280;23035;50.032;21.978;2023-03-03T09:55:42;65431.25;;;2.52;100.00
37132;BME280;23035;50.032;21.978;2023-03-03T10:00:55;65470.03;;;2.87;100.00
37132;BME280;23035;50.032;21.978;2023-03-03T10:06:10;65511.63;;;3.27;100.00
37132;BME280;23035;50.032;21.978;2023-03-03T10:11:28;65473.66;;;2.88;100.00
37132;BME280;23035;50.032;21.978;2023-03-03T10:16:55;65457.16;;;2.72;100.00
37132;BME280;23035;50.032;21.978;2023-03-03T10:22:12;65446.41;;;2.59;100.00
37132;BME280;23035;50.032;21.978;2023-03-03T10:27:35;65411.88;;;2.29;100.00
37132;BME280;23035;50.032;21.978;2023-03-03T10:32:48;65387.03;;;2.10;100.00
37132;BME280;23035;50.032;21.978;2023-03-03T10:38:09;65440.00;;;2.53;100.00
37132;BME280;23035;50.032;21.978;2023-03-03T10:43:28;65526.97;;;3.39;100.00
37132;BME280;23035;50.032;21.978;2023-03-03T10:49:02;65436.38;;;2.52;100.00
37132;BME280;23035;50.032;21.978;2023-03-03T10:54:23;65415.50;;;2.30;100.00
37132;BME280;23035;50.032;21.978;2023-03-03T10:59:49;65384.69;;;2.03;100.00
37132;BME280;23035;50.032;21.978;2023-03-03T11:05:16;65477.06;;;2.96;100.00
37132;BME280;23035;50.032;21.978;2023-03-03T11:10:29;65582.97;;;3.92;100.00
37132;BME280;23035;50.032;21.978;2023-03-03T11:15:57;65498.28;;;3.14;100.00
37132;BME280;23035;50.032;21.978;2023-03-03T11:21:12;65483.28;;;2.97;100.00
37132;BME280;23035;50.032;21.978;2023-03-03T11:26:32;65540.22;;;3.49;100.00
37132;BME280;23035;50.032;21.978;2023-03-03T11:32:03;65455.22;;;2.75;100.00
37132;BME280;23035;50.032;21.978;2023-03-03T11:37:24;65423.50;;;2.38;100.00
37132;BME280;23035;50.032;21.978;2023-03-03T11:42:50;65427.84;;;2.44;100.00
37132;BME280;23035;50.032;21.978;2023-03-03T11:48:18;65480.06;;;2.94;100.00
37132;BME280;23035;50.032;21.978;2023-03-03T11:53:37;65482.09;;;2.94;100.00
37132;BME280;23035;50.032;21.978;2023-03-03T11:58:46;65432.09;;;2.48;100.00
37132;BME280;23035;50.032;21.978;2023-03-03T12:03:58;65432.53;;;2.46;100.00
37132;BME280;23035;50.032;21.978;2023-03-03T12:09:14;65395.88;;;2.14;100.00
37132;BME280;23035;50.032;21.978;2023-03-03T12:14:53;65426.25;;;2.43;100.00
37132;BME280;23035;50.032;21.978;2023-03-03T12:20:06;65479.44;;;2.91;100.00
37132;BME280;23035;50.032;21.978;2023-03-03T12:25:26;65402.81;;;2.20;100.00
37132;BME280;23035;50.032;21.978;2023-03-03T12:30:43;65451.63;;;2.62;100.00
37132;BME280;23035;50.032;21.978;2023-03-03T12:36:03;65475.19;;;2.87;100.00
37132;BME280;23035;50.032;21.978;2023-03-03T12:41:15;65498.72;;;3.12;100.00
37132;BME280;23035;50.032;21.978;2023-03-03T12:46:29;65447.22;;;2.68;100.00
37132;BME280;23035;50.032;21.978;2023-03-03T12:51:47;65479.97;;;2.92;100.00
37132;BME280;23035;50.032;21.978;2023-03-03T12:56:59;65498.19;;;3.11;100.00
37132;BME280;23035;50.032;21.978;2023-03-03T13:02:24;65573.25;;;3.81;100.00
37132;BME280;23035;50.032;21.978;2023-03-03T13:07:40;65499.38;;;3.15;100.00
37132;BME280;23035;50.032;21.978;2023-03-03T13:12:52;65459.47;;;2.79;100.00
37132;BME280;23035;50.032;21.978;2023-03-03T13:18:12;65459.91;;;2.77;100.00
37132;BME280;23035;50.032;21.978;2023-03-03T13:23:33;65502.47;;;3.15;100.00
37132;BME280;23035;50.032;21.978;2023-03-03T13:28:49;65452.44;;;2.70;100.00
37132;BME280;23035;50.032;21.978;2023-03-03T13:34:00;65614.56;;;4.25;100.00
37132;BME280;23035;50.032;21.978;2023-03-03T13:39:13;65605.03;;;4.18;100.00
37132;BME280;23035;50.032;21.978;2023-03-03T13:44:24;65523.66;;;3.33;100.00
37132;BME280;23035;50.032;21.978;2023-03-03T13:49:50;65571.66;;;3.79;100.00
37132;BME280;23035;50.032;21.978;2023-03-03T13:55:18;65495.00;;;3.08;100.00
37132;BME280;23035;50.032;21.978;2023-03-03T14:00:43;65476.78;;;2.88;100.00
37132;BME280;23035;50.032;21.978;2023-03-03T14:05:56;65376.16;;;1.95;100.00
37132;BME280;23035;50.032;21.978;2023-03-03T14:11:10;65389.50;;;2.08;100.00
37132;BME280;23035;50.032;21.978;2023-03-03T14:16:28;65393.75;;;2.12;100.00
37132;BME280;23035;50.032;21.978;2023-03-03T14:21:44;65425.72;;;2.42;100.00
37132;BME280;23035;50.032;21.978;2023-03-03T14:26:55;65402.81;;;2.20;100.00
37132;BME280;23035;50.032;21.978;2023-03-03T14:32:01;65434.56;;;2.46;100.00
37132;BME280;23035;50.032;21.978;2023-03-03T14:37:20;65411.34;;;2.28;100.00
37132;BME280;23035;50.032;21.978;2023-03-03T14:42:37;65400.16;;;2.18;100.00
37132;BME280;23035;50.032;21.978;2023-03-03T14:47:47;65434.25;;;2.50;100.00
37132;BME280;23035;50.032;21.978;2023-03-03T14:53:13;65388.31;;;2.04;100.00
37132;BME280;23035;50.032;21.978;2023-03-03T14:58:29;65394.38;;;2.15;100.00
37132;BME280;23035;50.032;21.978;2023-03-03T15:03:35;65394.81;;;2.13;100.00
37132;BME280;23035;50.032;21.978;2023-03-03T15:08:41;65357.56;;;1.77;100.00
37132;BME280;23035;50.032;21.978;2023-03-03T15:13:48;65331.47;;;1.52;100.00
37132;BME280;23035;50.032;21.978;2023-03-03T15:19:20;65343.06;;;1.61;100.00
37132;BME280;23035;50.032;21.978;2023-03-03T15:24:37;65365.44;;;1.82;100.00
37132;BME280;23035;50.032;21.978;2023-03-03T15:29:55;65374.56;;;1.93;100.00
37132;BME280;23035;50.032;21.978;2023-03-03T15:35:14;65296.88;;;1.19;100.00
37132;BME280;23035;50.032;21.978;2023-03-03T15:40:26;65260.16;;;0.84;100.00
37132;BME280;23035;50.032;21.978;2023-03-03T15:45:37;65250.03;;;0.74;100.00
37132;BME280;23035;50.032;21.978;2023-03-03T15:50:51;65266.41;;;0.88;100.00
37132;BME280;23035;50.032;21.978;2023-03-03T15:56:08;65237.72;;;0.60;100.00
37132;BME280;23035;50.032;21.978;2023-03-03T16:01:21;65230.88;;;0.56;100.00
37132;BME280;23035;50.032;21.978;2023-03-03T16:06:35;65286.22;;;1.09;100.00
37132;BME280;23035;50.032;21.978;2023-03-03T16:11:45;65253.03;;;0.72;100.00
37132;BME280;23035;50.032;21.978;2023-03-03T16:17:01;65210.91;;;0.30;100.00
37132;BME280;23035;50.032;21.978;2023-03-03T16:22:23;65201.63;;;0.28;100.00
37132;BME280;23035;50.032;21.978;2023-03-03T16:27:34;65210.03;;;0.34;100.00
37132;BME280;23035;50.032;21.978;2023-03-03T16:32:48;65205.25;;;0.29;100.00
37132;BME280;23035;50.032;21.978;2023-03-03T16:37:57;65190.91;;;0.15;100.00
37132;BME280;23035;50.032;21.978;2023-03-03T16:43:13;65175.69;;;0.06;100.00
37132;BME280;23035;50.032;21.978;2023-03-03T16:48:27;65204.31;;;0.31;100.00
37132;BME280;23035;50.032;21.978;2023-03-03T16:53:47;65223.34;;;0.46;100.00
37132;BME280;23035;50.032;21.978;2023-03-03T16:59:09;65193.66;;;0.20;100.00
37132;BME280;23035;50.032;21.978;2023-03-03T17:04:38;65166.03;;;-0.06;100.00
37132;BME280;23035;50.032;21.978;2023-03-03T17:09:58;65184.50;;;0.09;100.00
37132;BME280;23035;50.032;21.978;2023-03-03T17:15:19;65182.38;;;0.07;100.00
37132;BME280;23035;50.032;21.978;2023-03-03T17:20:36;65184.94;;;0.07;100.00
37132;BME280;23035;50.032;21.978;2023-03-03T17:25:46;65202.16;;;0.28;100.00
37132;BME280;23035;50.032;21.978;2023-03-03T17:30:57;65186.75;;;0.14;100.00
37132;BME280;23035;50.032;21.978;2023-03-03T17:36:19;65174.41;;;-0.01;100.00
37132;BME280;23035;50.032;21.978;2023-03-03T17:41:33;65201.53;;;0.25;100.00
37132;BME280;23035;50.032;21.978;2023-03-03T17:46:43;65176.03;;;0.01;100.00
37132;BME280;23035;50.032;21.978;2023-03-03T17:52:15;65170.38;;;0.01;100.00
37132;BME280;23035;50.032;21.978;2023-03-03T17:57:36;65173.88;;;-0.01;100.00
37132;BME280;23035;50.032;21.978;2023-03-03T18:14:28;65176.22;;;0.06;100.00
37132;BME280;23035;50.032;21.978;2023-03-03T18:20:04;65145.41;;;-0.23;100.00
37132;BME280;23035;50.032;21.978;2023-03-03T18:25:24;65174.00;;;0.02;100.00
37132;BME280;23035;50.032;21.978;2023-03-03T18:30:56;65113.41;;;-0.56;100.00
37132;BME280;23035;50.032;21.978;2023-03-03T18:36:13;65144.75;;;-0.26;100.00
37132;BME280;23035;50.032;21.978;2023-03-03T18:41:24;65104.91;;;-0.65;100.00
37132;BME280;23035;50.032;21.978;2023-03-03T18:46:51;65161.66;;;-0.13;100.00
37132;BME280;23035;50.032;21.978;2023-03-03T18:52:15;65169.09;;;-0.06;100.00
37132;BME280;23035;50.032;21.978;2023-03-03T18:57:22;65154.88;;;-0.17;100.00
37132;BME280;23035;50.032;21.978;2023-03-03T19:02:36;65182.28;;;0.05;100.00
37132;BME280;23035;50.032;21.978;2023-03-03T19:07:55;65170.69;;;-0.04;100.00
37132;BME280;23035;50.032;21.978;2023-03-03T19:13:12;65180.50;;;0.10;100.00
37132;BME280;23035;50.032;21.978;2023-03-03T19:18:34;65185.69;;;0.13;100.00
37132;BME280;23035;50.032;21.978;2023-03-03T19:23:52;65190.59;;;0.20;100.00
37132;BME280;23035;50.032;21.978;2023-03-03T19:29:14;65240.25;;;0.60;100.00
37132;BME280;23035;50.032;21.978;2023-03-03T19:34:27;65209.63;;;0.36;100.00
37132;BME280;23035;50.032;21.978;2023-03-03T19:39:51;65222.81;;;0.46;100.00
37132;BME280;23035;50.032;21.978;2023-03-03T19:45:08;65203.03;;;0.24;100.00
37132;BME280;23035;50.032;21.978;2023-03-03T19:50:28;65220.69;;;0.44;100.00
37132;BME280;23035;50.032;21.978;2023-03-03T19:55:47;65199.41;;;0.23;100.00
37132;BME280;23035;50.032;21.978;2023-03-03T20:00:58;65192.59;;;0.19;100.00
37132;BME280;23035;50.032;21.978;2023-03-03T20:06:19;65262.81;;;0.86;100.00
37132;BME280;23035;50.032;21.978;2023-03-03T20:11:42;65208.56;;;0.35;100.00
37132;BME280;23035;50.032;21.978;2023-03-03T20:16:54;65235.56;;;0.58;100.00
37132;BME280;23035;50.032;21.978;2023-03-03T20:22:08;65207.81;;;0.29;100.00
37132;BME280;23035;50.032;21.978;2023-03-03T20:27:16;65235.03;;;0.57;100.00
37132;BME280;23035;50.032;21.978;2023-03-03T20:32:31;65213.22;;;0.37;100.00
37132;BME280;23035;50.032;21.978;2023-03-03T20:37:43;65185.69;;;0.13;100.00
37132;BME280;23035;50.032;21.978;2023-03-03T20:42:57;65191.53;;;0.18;100.00
37132;BME280;23035;50.032;21.978;2023-03-03T20:48:21;65235.25;;;0.63;100.00
37132;BME280;23035;50.032;21.978;2023-03-03T20:53:35;65197.91;;;0.24;100.00
37132;BME280;23035;50.032;21.978;2023-03-03T20:58:57;65243.44;;;0.63;100.00
37132;BME280;23035;50.032;21.978;2023-03-03T21:04:19;65222.16;;;0.43;100.00
37132;BME280;23035;50.032;21.978;2023-03-03T21:09:27;65198.78;;;0.20;100.00
37132;BME280;23035;50.032;21.978;2023-03-03T21:14:33;65202.16;;;0.28;100.00
37132;BME280;23035;50.032;21.978;2023-03-03T21:19:40;65196.00;;;0.27;100.00
37132;BME280;23035;50.032;21.978;2023-03-03T21:24:48;65195.56;;;0.17;100.00
37132;BME280;23035;50.032;21.978;2023-03-03T21:30:04;65231.31;;;0.54;100.00
37132;BME280;23035;50.032;21.978;2023-03-03T21:35:13;65200.03;;;0.26;100.00
37132;BME280;23035;50.032;21.978;2023-03-03T21:40:19;65176.84;;;-0.03;100.00
37132;BME280;23035;50.032;21.978;2023-03-03T21:45:26;65155.28;;;-0.19;100.00
37132;BME280;23035;50.032;21.978;2023-03-03T21:50:33;65148.47;;;-0.23;100.00
37132;BME280;23035;50.032;21.978;2023-03-03T21:55:37;65164.53;;;-0.05;100.00
37132;BME280;23035;50.032;21.978;2023-03-03T22:00:42;65156.22;;;-0.20;100.00
37132;BME280;23035;50.032;21.978;2023-03-03T22:05:48;65157.50;;;-0.14;100.00
37132;BME280;23035;50.032;21.978;2023-03-03T22:10:53;65147.22;;;-0.29;100.00
37132;BME280;23035;50.032;21.978;2023-03-03T22:15:58;65152.22;;;-0.19;100.00
37132;BME280;23035;50.032;21.978;2023-03-03T22:21:06;65159.53;;;-0.15;100.00
37132;BME280;23035;50.032;21.978;2023-03-03T22:26:11;65130.31;;;-0.43;100.00
37132;BME280;23035;50.032;21.978;2023-03-03T22:31:16;65136.78;;;-0.34;100.00
37132;BME280;23035;50.032;21.978;2023-03-03T22:36:23;65147.31;;;-0.26;100.00
37132;BME280;23035;50.032;21.978;2023-03-03T22:41:28;65149.88;;;-0.26;100.00
37132;BME280;23035;50.032;21.978;2023-03-03T22:46:32;65156.88;;;-0.17;100.00
37132;BME280;23035;50.032;21.978;2023-03-03T22:51:38;65113.94;;;-0.56;100.00
37132;BME280;23035;50.032;21.978;2023-03-03T22:56:42;65101.59;;;-0.70;100.00
37132;BME280;23035;50.032;21.978;2023-03-03T23:01:47;65115.31;;;-0.60;100.00
37132;BME280;23035;50.032;21.978;2023-03-03T23:06:53;65105.88;;;-0.66;100.00
37132;BME280;23035;50.032;21.978;2023-03-03T23:11:59;65105.44;;;-0.64;100.00
37132;BME280;23035;50.032;21.978;2023-03-03T23:17:03;65096.31;;;-0.75;100.00
37132;BME280;23035;50.032;21.978;2023-03-03T23:22:09;65100.34;;;-0.76;100.00
37132;BME280;23035;50.032;21.978;2023-03-03T23:27:13;65087.78;;;-0.83;100.00
37132;BME280;23035;50.032;21.978;2023-03-03T23:32:17;65092.69;;;-0.76;100.00
37132;BME280;23035;50.032;21.978;2023-03-03T23:37:25;65095.25;;;-0.76;100.00
37132;BME280;23035;50.032;21.978;2023-03-03T23:42:29;65143.06;;;-0.31;100.00
37132;BME280;23035;50.032;21.978;2023-03-03T23:47:34;65112.66;;;-0.62;100.00
37132;BME280;23035;50.032;21.978;2023-03-03T23:52:39;65100.97;;;-0.73;100.00
37132;BME280;23035;50.032;21.978;2023-03-03T23:57:44;65129.56;;;-0.48;100.00
